createdAt,value
2017-08-11T00:00:23.929Z,83.10
2017-08-11T00:02:51.536Z,82.91
2017-08-11T00:05:19.204Z,83.42
2017-08-11T00:07:46.811Z,83.15
2017-08-11T00:10:14.415Z,83.42
2017-08-11T00:12:42.119Z,83.78
2017-08-11T00:15:09.733Z,83.67
2017-08-11T00:17:37.344Z,83.27
2017-08-11T00:20:05.011Z,83.09
2017-08-11T00:22:32.628Z,82.74
2017-08-11T00:25:00.852Z,82.15
2017-08-11T00:27:28.520Z,82.59
2017-08-11T00:29:56.117Z,82.57
2017-08-11T00:32:23.731Z,82.46
2017-08-11T00:34:51.407Z,83.12
2017-08-11T00:37:19.011Z,83.10
2017-08-11T00:39:46.623Z,82.96
2017-08-11T00:42:14.312Z,83.50
2017-08-11T00:44:41.911Z,83.90
2017-08-11T00:47:09.515Z,84.29
2017-08-11T00:49:37.144Z,84.66
2017-08-11T00:52:04.751Z,84.26
2017-08-11T00:54:32.357Z,84.15
2017-08-11T00:57:00.011Z,84.08
2017-08-11T00:59:27.606Z,83.55
2017-08-11T01:01:55.237Z,83.92
2017-08-11T01:04:22.903Z,82.99
2017-08-11T01:06:50.557Z,83.38
2017-08-11T01:09:18.156Z,84.30
2017-08-11T01:11:45.820Z,84.46
2017-08-11T01:14:13.426Z,83.96
2017-08-11T01:16:41.041Z,82.96
2017-08-11T01:19:08.714Z,82.49
2017-08-11T01:21:36.339Z,83.84
2017-08-11T01:24:04.032Z,83.74
2017-08-11T01:26:31.711Z,83.24
2017-08-11T01:28:59.335Z,83.86
2017-08-11T01:31:26.951Z,83.75
2017-08-11T01:33:54.626Z,83.56
2017-08-11T01:36:22.240Z,84.26
2017-08-11T01:38:49.846Z,84.20
2017-08-11T01:41:17.497Z,84.00
2017-08-11T01:43:45.096Z,82.14
2017-08-11T01:46:12.693Z,82.16
2017-08-11T01:48:40.363Z,83.48
2017-08-11T01:51:07.961Z,83.70
2017-08-11T01:53:35.650Z,83.30
2017-08-11T01:56:03.328Z,83.06
2017-08-11T01:58:30.925Z,82.70
2017-08-11T02:00:58.531Z,83.86
2017-08-11T02:03:26.203Z,84.16
2017-08-11T02:05:53.822Z,83.24
2017-08-11T02:08:21.483Z,82.78
2017-08-11T02:10:50.132Z,83.25
2017-08-11T02:13:17.762Z,82.98
2017-08-11T02:15:45.364Z,83.97
2017-08-11T02:18:13.036Z,84.13
2017-08-11T02:20:40.668Z,82.24
2017-08-11T02:23:08.291Z,82.97
2017-08-11T02:25:35.953Z,83.12
2017-08-11T02:28:03.560Z,84.25
2017-08-11T02:30:31.158Z,83.89
2017-08-11T02:32:58.800Z,83.60
2017-08-11T02:35:26.381Z,84.24
2017-08-11T02:37:54.091Z,84.69
2017-08-11T02:40:21.764Z,85.21
2017-08-11T02:42:49.356Z,84.53
2017-08-11T02:45:16.980Z,82.38
2017-08-11T02:47:44.664Z,82.88
2017-08-11T02:50:12.261Z,83.66
2017-08-11T02:52:39.884Z,83.82
2017-08-11T02:55:07.548Z,83.39
2017-08-11T02:57:35.155Z,84.34
2017-08-11T03:00:02.775Z,85.13
2017-08-11T03:02:30.440Z,84.09
2017-08-11T03:04:58.056Z,83.79
2017-08-11T03:07:25.661Z,83.63
2017-08-11T03:09:53.409Z,82.88
2017-08-11T03:12:21.020Z,82.93
2017-08-11T03:14:48.655Z,82.82
2017-08-11T03:17:16.314Z,83.34
2017-08-11T03:19:43.921Z,82.66
2017-08-11T03:22:11.521Z,83.72
2017-08-11T03:24:39.195Z,83.39
2017-08-11T03:27:06.827Z,83.77
2017-08-11T03:29:34.433Z,83.59
2017-08-11T03:32:02.161Z,83.90
2017-08-11T03:34:29.761Z,83.25
2017-08-11T03:36:57.357Z,81.82
2017-08-11T03:39:25.078Z,81.55
2017-08-11T03:41:52.698Z,82.14
2017-08-11T03:44:20.306Z,82.36
2017-08-11T03:46:47.965Z,81.65
2017-08-11T03:49:15.543Z,81.15
2017-08-11T03:51:43.136Z,80.84
2017-08-11T03:54:10.800Z,80.28
2017-08-11T03:56:38.419Z,79.34
2017-08-11T03:59:06.033Z,75.75
2017-08-11T04:01:33.679Z,73.39
2017-08-11T04:04:01.292Z,70.13
2017-08-11T04:06:28.895Z,67.80
2017-08-11T04:08:56.560Z,64.96
2017-08-11T04:11:24.253Z,61.59
2017-08-11T04:13:51.864Z,59.41
2017-08-11T04:16:19.530Z,56.95
2017-08-11T04:18:47.145Z,54.63
2017-08-11T04:21:14.736Z,54.35
2017-08-11T04:23:42.392Z,52.36
2017-08-11T04:26:09.999Z,52.12
2017-08-11T04:28:37.606Z,51.02
2017-08-11T04:31:05.293Z,49.11
2017-08-11T04:33:32.959Z,48.15
2017-08-11T04:36:00.554Z,46.42
2017-08-11T04:38:28.209Z,46.07
2017-08-11T04:40:55.818Z,44.30
2017-08-11T04:43:23.437Z,45.16
2017-08-11T04:45:51.068Z,44.14
2017-08-11T04:48:18.670Z,43.11
2017-08-11T04:50:46.292Z,42.52
2017-08-11T04:53:13.938Z,40.50
2017-08-11T04:55:41.533Z,38.11
2017-08-11T04:58:09.191Z,37.22
2017-08-11T05:00:36.850Z,34.52
2017-08-11T05:03:04.462Z,33.15
2017-08-11T05:05:32.061Z,32.40
2017-08-11T05:07:59.705Z,32.16
2017-08-11T05:10:27.378Z,32.16
2017-08-11T05:12:55.000Z,30.88
2017-08-11T05:15:22.654Z,31.13
2017-08-11T05:17:50.241Z,32.42
2017-08-11T05:20:17.847Z,30.67
2017-08-11T05:22:45.593Z,29.28
2017-08-11T05:25:13.212Z,28.91
2017-08-11T05:27:40.816Z,28.40
2017-08-11T05:30:08.482Z,28.50
2017-08-11T05:32:36.114Z,29.82
2017-08-11T05:35:03.709Z,28.57
2017-08-11T05:37:31.375Z,29.68
2017-08-11T05:39:58.986Z,32.23
2017-08-11T05:42:26.607Z,34.18
2017-08-11T05:44:54.289Z,36.34
2017-08-11T05:47:21.893Z,37.59
2017-08-11T05:49:49.508Z,37.02
2017-08-11T05:52:17.175Z,38.54
2017-08-11T05:54:44.773Z,35.43
2017-08-11T05:57:12.377Z,31.18
2017-08-11T05:59:40.055Z,29.29
2017-08-11T06:02:07.664Z,27.23
2017-08-11T06:04:35.323Z,26.11
2017-08-11T06:07:02.970Z,28.42
2017-08-11T06:09:30.548Z,31.32
2017-08-11T06:11:58.158Z,32.42
2017-08-11T06:14:26.053Z,30.39
2017-08-11T06:16:53.654Z,28.95
2017-08-11T06:19:21.247Z,26.99
2017-08-11T06:21:48.900Z,25.84
2017-08-11T06:24:16.494Z,24.70
2017-08-11T06:26:44.088Z,23.83
2017-08-11T06:29:11.767Z,25.36
2017-08-11T06:31:39.388Z,26.36
2017-08-11T06:34:06.988Z,25.69
2017-08-11T06:36:34.650Z,25.64
2017-08-11T06:39:02.248Z,26.59
2017-08-11T06:41:29.875Z,26.97
2017-08-11T06:43:57.548Z,26.88
2017-08-11T06:46:25.145Z,25.89
2017-08-11T06:48:52.849Z,25.95
2017-08-11T06:51:20.516Z,25.09
2017-08-11T06:53:48.132Z,25.75
2017-08-11T06:56:15.742Z,27.41
2017-08-11T06:58:43.439Z,27.47
2017-08-11T07:01:11.054Z,26.48
2017-08-11T07:03:38.675Z,24.59
2017-08-11T07:06:06.339Z,25.71
2017-08-11T07:08:33.946Z,27.25
2017-08-11T07:11:01.580Z,29.04
2017-08-11T07:13:29.233Z,29.56
2017-08-11T07:15:56.882Z,27.72
2017-08-11T07:18:24.494Z,29.15
2017-08-11T07:20:52.172Z,26.62
2017-08-11T07:23:19.764Z,26.97
2017-08-11T07:25:47.383Z,25.66
2017-08-11T07:28:15.037Z,26.45
2017-08-11T07:30:42.649Z,26.09
2017-08-11T07:33:10.290Z,26.65
2017-08-11T07:35:37.941Z,26.15
2017-08-11T07:38:05.537Z,24.70
2017-08-11T07:40:33.157Z,24.51
2017-08-11T07:43:00.846Z,25.02
2017-08-11T07:45:28.452Z,26.01
2017-08-11T07:47:56.076Z,25.22
2017-08-11T07:50:23.735Z,27.01
2017-08-11T07:52:51.354Z,25.65
2017-08-11T07:55:18.976Z,27.93
2017-08-11T07:57:46.682Z,24.05
2017-08-11T08:00:14.294Z,24.44
2017-08-11T08:02:41.895Z,25.15
2017-08-11T08:05:09.555Z,23.92
2017-08-11T08:07:37.168Z,23.21
2017-08-11T08:10:04.780Z,24.28
2017-08-11T08:12:32.456Z,23.52
2017-08-11T08:15:00.080Z,25.26
2017-08-11T08:17:27.736Z,26.02
2017-08-11T08:19:55.398Z,26.62
2017-08-11T08:22:23.016Z,25.74
2017-08-11T08:24:50.630Z,26.29
2017-08-11T08:27:18.311Z,26.93
2017-08-11T08:29:45.928Z,25.49
2017-08-11T08:32:13.537Z,29.36
2017-08-11T08:34:41.181Z,27.13
2017-08-11T08:37:08.790Z,26.36
2017-08-11T08:39:36.402Z,26.06
2017-08-11T08:42:04.057Z,26.53
2017-08-11T08:44:31.665Z,27.26
2017-08-11T08:46:59.319Z,25.87
2017-08-11T08:49:26.985Z,27.13
2017-08-11T08:51:54.592Z,29.58
2017-08-11T08:54:22.216Z,26.51
2017-08-11T08:56:49.878Z,27.02
2017-08-11T08:59:17.504Z,26.07
2017-08-11T09:01:45.122Z,28.05
2017-08-11T09:04:12.798Z,26.65
2017-08-11T09:06:40.420Z,27.01
2017-08-11T09:09:08.030Z,26.71
2017-08-11T09:11:35.709Z,26.23
2017-08-11T09:14:03.303Z,24.43
2017-08-11T09:16:30.902Z,24.68
2017-08-11T09:18:58.578Z,24.40
2017-08-11T09:21:26.167Z,24.72
2017-08-11T09:23:53.761Z,26.52
2017-08-11T09:26:33.017Z,23.89
2017-08-11T09:29:12.267Z,23.12
2017-08-11T09:31:51.525Z,24.28
2017-08-11T09:34:30.659Z,26.93
2017-08-11T09:36:58.320Z,27.03
2017-08-11T09:39:26.014Z,26.91
2017-08-11T09:41:53.642Z,25.57
2017-08-11T09:44:21.517Z,26.03
2017-08-11T09:46:49.151Z,24.63
2017-08-11T09:49:16.753Z,23.93
2017-08-11T09:51:44.412Z,25.17
2017-08-11T09:54:12.651Z,23.43
2017-08-11T09:56:40.268Z,22.90
2017-08-11T09:59:07.922Z,23.17
2017-08-11T10:01:35.539Z,23.00
2017-08-11T10:04:03.160Z,24.40
2017-08-11T10:06:30.838Z,24.48
2017-08-11T10:08:58.502Z,25.66
2017-08-11T10:11:26.169Z,23.17
2017-08-11T10:13:53.829Z,23.36
2017-08-11T10:16:21.438Z,21.96
2017-08-11T10:18:49.084Z,22.88
2017-08-11T10:21:16.789Z,22.00
2017-08-11T10:23:44.410Z,20.30
2017-08-11T10:26:12.026Z,19.91
2017-08-11T10:28:39.683Z,22.25
2017-08-11T10:31:07.277Z,23.66
2017-08-11T10:33:34.886Z,22.24
2017-08-11T10:36:02.538Z,20.45
2017-08-11T10:38:30.147Z,18.46
2017-08-11T10:40:57.768Z,18.69
2017-08-11T10:43:25.434Z,19.07
2017-08-11T10:45:53.031Z,19.82
2017-08-11T10:48:20.635Z,21.07
2017-08-11T10:50:48.325Z,23.21
2017-08-11T10:53:16.315Z,22.78
2017-08-11T10:55:43.917Z,24.08
2017-08-11T10:58:11.583Z,24.89
2017-08-11T11:00:39.182Z,26.07
2017-08-11T11:03:06.801Z,25.59
2017-08-11T11:05:34.869Z,26.53
2017-08-11T11:08:02.598Z,27.53
2017-08-11T11:10:30.598Z,26.10
2017-08-11T11:12:58.580Z,26.56
2017-08-11T11:15:26.538Z,23.74
2017-08-11T11:17:54.567Z,22.14
2017-08-11T11:20:22.270Z,21.83
2017-08-11T11:22:50.182Z,22.03
2017-08-11T11:25:17.798Z,20.98
2017-08-11T11:27:45.871Z,20.77
2017-08-11T11:30:13.597Z,19.62
2017-08-11T11:32:41.400Z,21.31
2017-08-11T11:35:09.060Z,21.65
2017-08-11T11:37:36.676Z,20.70
2017-08-11T11:40:04.284Z,21.05
2017-08-11T11:42:31.925Z,21.90
2017-08-11T11:44:59.520Z,22.24
2017-08-11T11:47:27.112Z,23.20
2017-08-11T11:49:54.831Z,19.17
2017-08-11T11:52:22.446Z,20.01
2017-08-11T11:54:50.056Z,20.26
2017-08-11T11:57:17.697Z,21.06
2017-08-11T11:59:45.298Z,21.50
2017-08-11T12:02:12.898Z,21.19
2017-08-11T12:04:40.539Z,22.51
2017-08-11T12:07:08.143Z,22.13
2017-08-11T12:09:35.733Z,23.17
2017-08-11T12:12:03.385Z,22.66
2017-08-11T12:14:30.976Z,23.88
2017-08-11T12:16:58.598Z,22.38
2017-08-11T12:19:26.296Z,21.23
2017-08-11T12:21:53.913Z,19.34
2017-08-11T12:24:21.517Z,20.99
2017-08-11T12:26:49.193Z,18.80
2017-08-11T12:29:16.795Z,20.15
2017-08-11T12:31:44.419Z,20.93
2017-08-11T12:34:12.112Z,20.45
2017-08-11T12:36:39.883Z,20.40
2017-08-11T12:39:07.514Z,19.84
2017-08-11T12:41:35.178Z,21.32
2017-08-11T12:44:02.790Z,22.59
2017-08-11T12:46:30.500Z,21.88
2017-08-11T12:48:58.193Z,22.27
2017-08-11T12:51:25.803Z,22.96
2017-08-11T12:53:53.439Z,24.32
2017-08-11T12:56:21.290Z,24.69
2017-08-11T12:58:48.971Z,26.31
2017-08-11T13:01:16.572Z,27.43
2017-08-11T13:03:44.281Z,27.80
2017-08-11T13:06:12.309Z,29.20
2017-08-11T13:08:40.223Z,29.50
2017-08-11T13:11:08.244Z,28.34
2017-08-11T13:13:36.163Z,28.46
2017-08-11T13:16:03.825Z,28.68
2017-08-11T13:18:31.652Z,29.88
2017-08-11T13:20:59.633Z,29.22
2017-08-11T13:23:27.420Z,29.43
2017-08-11T13:25:55.539Z,29.78
2017-08-11T13:28:23.205Z,28.90
2017-08-11T13:30:51.024Z,28.54
2017-08-11T13:33:19.020Z,29.27
2017-08-11T13:35:46.862Z,30.24
2017-08-11T13:38:14.686Z,30.18
2017-08-11T13:40:42.651Z,29.74
2017-08-11T13:43:10.469Z,31.12
2017-08-11T13:45:38.286Z,30.22
2017-08-11T13:48:06.278Z,30.31
2017-08-11T13:50:34.167Z,31.17
2017-08-11T13:53:01.858Z,31.96
2017-08-11T13:55:29.851Z,29.56
2017-08-11T13:57:57.669Z,29.45
2017-08-11T14:00:25.633Z,29.49
2017-08-11T14:02:53.280Z,30.26
2017-08-11T14:05:20.873Z,30.20
2017-08-11T14:07:48.487Z,30.34
2017-08-11T14:10:16.129Z,30.85
2017-08-11T14:12:43.771Z,30.57
2017-08-11T14:15:11.392Z,30.79
2017-08-11T14:17:39.041Z,30.91
2017-08-11T14:20:06.660Z,31.62
2017-08-11T14:22:34.272Z,30.19
2017-08-11T14:25:01.937Z,29.65
2017-08-11T14:27:29.769Z,29.49
2017-08-11T14:29:57.393Z,29.94
2017-08-11T14:32:25.053Z,30.38
2017-08-11T14:34:52.648Z,30.78
2017-08-11T14:37:20.255Z,31.54
2017-08-11T14:39:47.923Z,31.46
2017-08-11T14:42:15.544Z,31.44
2017-08-11T14:44:43.129Z,31.03
2017-08-11T14:47:10.783Z,31.42
2017-08-11T14:49:38.387Z,31.01
2017-08-11T14:52:06.000Z,32.09
2017-08-11T14:54:33.667Z,31.15
2017-08-11T14:57:01.278Z,31.22
2017-08-11T14:59:28.895Z,31.70
2017-08-11T15:01:56.539Z,32.07
2017-08-11T15:04:24.148Z,32.39
2017-08-11T15:06:51.757Z,31.88
2017-08-11T15:09:19.401Z,33.37
2017-08-11T15:11:47.012Z,34.12
2017-08-11T15:14:14.612Z,35.33
2017-08-11T15:16:42.251Z,34.99
2017-08-11T15:19:09.857Z,35.06
2017-08-11T15:21:37.469Z,34.73
2017-08-11T15:24:05.141Z,35.49
2017-08-11T15:26:32.747Z,36.75
2017-08-11T15:29:00.359Z,36.06
2017-08-11T15:31:28.082Z,36.03
2017-08-11T15:33:55.689Z,37.00
2017-08-11T15:36:23.301Z,36.34
2017-08-11T15:38:50.945Z,36.49
2017-08-11T15:41:18.565Z,37.28
2017-08-11T15:43:46.168Z,38.09
2017-08-11T15:46:13.818Z,38.21
2017-08-11T15:48:41.421Z,39.38
2017-08-11T15:51:09.055Z,39.27
2017-08-11T15:53:36.695Z,39.56
2017-08-11T15:56:04.299Z,39.42
2017-08-11T15:58:31.904Z,40.03
2017-08-11T16:00:59.663Z,39.94
2017-08-11T16:03:27.269Z,40.57
2017-08-11T16:05:55.237Z,40.38
2017-08-11T16:08:22.904Z,40.85
2017-08-11T16:10:50.501Z,40.59
2017-08-11T16:13:18.108Z,41.09
2017-08-11T16:15:45.792Z,40.97
2017-08-11T16:18:13.413Z,41.56
2017-08-11T16:20:41.101Z,41.88
2017-08-11T16:23:08.753Z,42.04
2017-08-11T16:25:36.345Z,42.12
2017-08-11T16:28:03.964Z,43.18
2017-08-11T16:30:31.742Z,43.01
2017-08-11T16:32:59.346Z,43.45
2017-08-11T16:35:26.937Z,43.41
2017-08-11T16:37:54.580Z,43.82
2017-08-11T16:40:22.187Z,44.42
2017-08-11T16:42:49.787Z,44.80
2017-08-11T16:45:17.429Z,44.94
2017-08-11T16:47:45.038Z,45.56
2017-08-11T16:50:12.644Z,46.14
2017-08-11T16:52:40.288Z,46.59
2017-08-11T16:55:07.883Z,47.46
2017-08-11T16:57:35.474Z,47.94
2017-08-11T17:00:03.116Z,48.88
2017-08-11T17:02:30.727Z,49.37
2017-08-11T17:04:58.325Z,50.52
2017-08-11T17:07:25.951Z,50.81
2017-08-11T17:09:53.572Z,51.38
2017-08-11T17:12:21.199Z,52.00
2017-08-11T17:14:48.883Z,52.16
2017-08-11T17:17:16.498Z,52.87
2017-08-11T17:19:44.106Z,52.76
2017-08-11T17:22:11.761Z,53.38
2017-08-11T17:24:39.368Z,54.75
2017-08-11T17:27:06.993Z,56.06
2017-08-11T17:29:34.652Z,56.44
2017-08-11T17:32:02.291Z,56.46
2017-08-11T17:34:29.957Z,56.45
2017-08-11T17:36:57.601Z,61.23
2017-08-11T17:39:25.267Z,62.42
2017-08-11T17:41:52.891Z,63.32
2017-08-11T17:44:20.537Z,63.83
2017-08-11T17:46:48.151Z,64.98
2017-08-11T17:49:15.780Z,62.86
2017-08-11T17:51:43.450Z,60.06
2017-08-11T17:54:11.055Z,65.55
2017-08-11T17:56:38.653Z,67.69
2017-08-11T17:59:06.321Z,65.41
2017-08-11T18:01:33.965Z,67.32
2017-08-11T18:04:01.592Z,68.32
2017-08-11T18:06:29.260Z,65.89
2017-08-11T18:08:56.872Z,69.94
2017-08-11T18:11:24.494Z,70.08
2017-08-11T18:13:52.127Z,64.15
2017-08-11T18:16:19.729Z,70.12
2017-08-11T18:18:47.349Z,70.30
2017-08-11T18:21:15.007Z,72.71
2017-08-11T18:23:42.604Z,71.00
2017-08-11T18:26:10.205Z,72.20
2017-08-11T18:28:37.830Z,73.72
2017-08-11T18:31:05.456Z,69.66
2017-08-11T18:33:33.096Z,72.43
2017-08-11T18:36:00.766Z,67.59
2017-08-11T18:38:28.383Z,68.75
2017-08-11T18:40:55.994Z,69.76
2017-08-11T18:43:23.661Z,71.24
2017-08-11T18:45:51.273Z,69.34
2017-08-11T18:48:18.881Z,70.16
2017-08-11T18:50:46.590Z,68.63
2017-08-11T18:53:14.207Z,70.37
2017-08-11T18:55:41.828Z,67.13
2017-08-11T18:58:09.485Z,66.62
2017-08-11T19:00:37.118Z,64.62
2017-08-11T19:03:04.767Z,64.19
2017-08-11T19:05:32.413Z,62.93
2017-08-11T19:08:00.035Z,62.57
2017-08-11T19:10:27.681Z,61.74
2017-08-11T19:12:55.325Z,62.01
2017-08-11T19:15:22.937Z,61.18
2017-08-11T19:17:50.545Z,60.81
2017-08-11T19:20:18.195Z,61.14
2017-08-11T19:22:45.856Z,61.35
2017-08-11T19:25:13.468Z,60.80
2017-08-11T19:27:41.231Z,60.88
2017-08-11T19:30:08.845Z,61.17
2017-08-11T19:32:36.474Z,60.94
2017-08-11T19:35:04.204Z,60.74
2017-08-11T19:37:31.836Z,60.78
2017-08-11T19:39:59.437Z,59.93
2017-08-11T19:42:27.087Z,59.95
2017-08-11T19:44:54.696Z,60.16
2017-08-11T19:47:22.307Z,60.48
2017-08-11T19:49:49.969Z,60.14
2017-08-11T19:52:17.573Z,60.77
2017-08-11T19:54:45.180Z,60.85
2017-08-11T19:57:12.845Z,60.91
2017-08-11T19:59:40.450Z,60.72
2017-08-11T20:02:08.055Z,60.73
2017-08-11T20:04:35.686Z,60.76
2017-08-11T20:07:03.299Z,60.46
2017-08-11T20:09:30.916Z,61.13
2017-08-11T20:11:59.350Z,60.85
2017-08-11T20:14:26.988Z,60.80
2017-08-11T20:16:54.644Z,61.04
2017-08-11T20:19:22.298Z,61.46
2017-08-11T20:21:49.937Z,61.15
2017-08-11T20:24:17.541Z,62.21
2017-08-11T20:26:45.190Z,61.72
2017-08-11T20:29:12.785Z,61.06
2017-08-11T20:31:40.373Z,62.25
2017-08-11T20:34:08.044Z,61.54
2017-08-11T20:36:35.671Z,63.31
2017-08-11T20:39:03.360Z,62.09
2017-08-11T20:41:31.007Z,62.65
2017-08-11T20:43:58.634Z,62.29
2017-08-11T20:46:26.239Z,63.25
2017-08-11T20:48:53.900Z,63.65
2017-08-11T20:51:21.498Z,66.35
2017-08-11T20:53:49.109Z,69.40
2017-08-11T20:56:16.768Z,69.61
2017-08-11T20:58:44.379Z,70.52
2017-08-11T21:01:11.998Z,70.11
2017-08-11T21:03:39.645Z,66.64
2017-08-11T21:06:07.256Z,66.26
2017-08-11T21:08:34.920Z,69.27
2017-08-11T21:11:02.571Z,69.03
2017-08-11T21:13:30.259Z,69.46
2017-08-11T21:15:57.906Z,71.57
2017-08-11T21:18:25.779Z,71.31
2017-08-11T21:20:53.732Z,74.16
2017-08-11T21:23:21.426Z,74.42
2017-08-11T21:25:49.147Z,72.83
2017-08-11T21:28:17.166Z,75.57
2017-08-11T21:30:44.881Z,74.12
2017-08-11T21:33:12.696Z,76.08
2017-08-11T21:35:40.538Z,78.45
2017-08-11T21:38:08.534Z,78.67
2017-08-11T21:40:36.195Z,78.14
2017-08-11T21:43:03.802Z,79.06
2017-08-11T21:45:31.423Z,78.08
2017-08-11T21:47:59.057Z,79.07
2017-08-11T21:50:26.666Z,79.62
2017-08-11T21:52:54.266Z,80.32
2017-08-11T21:55:21.927Z,80.76
2017-08-11T21:57:49.529Z,81.76
2017-08-11T22:00:17.155Z,78.14
2017-08-11T22:02:44.807Z,77.95
2017-08-11T22:05:12.415Z,78.47
2017-08-11T22:07:40.164Z,79.06
2017-08-11T22:10:08.106Z,78.34
2017-08-11T22:12:36.046Z,78.26
2017-08-11T22:15:03.864Z,77.44
2017-08-11T22:17:31.632Z,77.07
2017-08-11T22:19:59.495Z,79.12
2017-08-11T22:22:27.343Z,79.06
2017-08-11T22:24:55.018Z,80.76
2017-08-11T22:27:22.749Z,81.08
2017-08-11T22:29:50.616Z,82.43
2017-08-11T22:32:18.580Z,82.05
2017-08-11T22:34:46.496Z,81.33
2017-08-11T22:37:14.214Z,78.77
2017-08-11T22:39:42.409Z,78.33
2017-08-11T22:42:10.303Z,78.87
2017-08-11T22:44:38.163Z,78.24
2017-08-11T22:47:05.825Z,78.40
2017-08-11T22:49:33.513Z,78.96
2017-08-11T22:52:01.271Z,79.16
2017-08-11T22:54:29.227Z,79.68
2017-08-11T22:56:56.885Z,79.45
2017-08-11T22:59:24.624Z,79.73
2017-08-11T23:01:52.612Z,80.16
2017-08-11T23:04:20.358Z,80.01
2017-08-11T23:06:48.322Z,78.94
2017-08-11T23:09:16.062Z,78.73
2017-08-11T23:11:43.952Z,79.82
2017-08-11T23:14:11.698Z,78.06
2017-08-11T23:16:39.517Z,78.21
2017-08-11T23:19:07.290Z,77.52
2017-08-11T23:21:35.152Z,78.33
2017-08-11T23:24:03.004Z,77.89
2017-08-11T23:26:30.857Z,78.66
2017-08-11T23:28:58.748Z,77.34
2017-08-11T23:31:26.611Z,77.95
2017-08-11T23:33:54.274Z,77.94
2017-08-11T23:36:22.127Z,77.19
2017-08-11T23:38:49.870Z,77.60
2017-08-11T23:41:17.669Z,78.33
2017-08-11T23:43:45.502Z,78.77
2017-08-11T23:46:13.247Z,79.47
2017-08-11T23:48:41.271Z,79.71
2017-08-11T23:51:09.344Z,79.86
2017-08-11T23:53:37.395Z,79.96
2017-08-11T23:56:05.282Z,80.00
2017-08-11T23:58:33.008Z,79.65
